Weather observations for the past three days for
Easton Airport
Imperial (Metric)
Date Time (edt) Wind (mph) Vis. (mi.) Weather Sky Cond. Temperature (ºF) Relative Humidity Wind Chill (°F) Heat Index (°F) Pressure Precipitation (in)
Air Dwpt 6 hour altimeter (in) sea level (mb) 1 hr 3 hr 6 hr
Max. Min.
10 16:45 SW 6 10.00 Fair CLR 82.4 48.2 30% 81 29.88 0.0
10 15:45 S 12 10.00 Fair CLR 82.4 50 32% 81 29.91 0.0
10 14:45 W 7 10.00 Fair CLR 80.6 51.8 37% 80 29.92 0.0
10 13:50 Vrbl 7 10.00 Fair CLR 78.8 51.8 39% 79 29.93 0.0
10 12:45 Vrbl 3 10.00 Fair CLR 78.8 53.6 42% 79 29.94 0.0
10 11:50 W 9 10.00 Fair CLR 77 51.8 42% 78 29.94 0.0
10 10:45 Vrbl 5 10.00 Fair CLR 77 51.8 42% 78 29.92 0.0
10 09:45 Calm 10.00 Fair CLR 73.4 53.6 50% 29.92 0.0
10 08:45 Calm 10.00 Fair CLR 66.2 57.2 73% 29.93 0.0
10 07:45 NW 3 10.00 Fair CLR 60.8 57.2 88% 29.9 0.0
10 06:45 N 5 10.00 Fair CLR 57.2 57.2 100% 29.88 0.0
10 05:55 NW 3 10.00 Fair CLR 55.4 55.4 100% 29.87 0.0
10 05:35 NW 3 10.00 Fair CLR 53.8 53.8 100% 29.87 0.0
10 05:15 Calm 10.00 Fair CLR 55 55 100% 29.86 0.0
10 04:55 W 3 10.00 Fair CLR 55.2 54.1 96% 29.85 0.0
10 04:35 Calm 10.00 Fair CLR 56.1 54.7 95% 29.84 0.0
10 04:15 Calm 10.00 Fair CLR 57 55.6 95% 29.84 0.0
10 03:55 Calm 10.00 Fair CLR 58.6 55.6 90% 29.83 0.0
10 03:35 Calm 10.00 Fair CLR 57.7 55.4 92% 29.84 0.0
10 03:15 Calm 9.00 Fair CLR 58.6 55 88% 29.83 0.0
10 02:55 Calm 10.00 Fair CLR 57.6 55.2 92% 29.83 0.0
10 02:35 Calm 9.00 Fair CLR 58.8 55.4 89% 29.83 0.0
10 02:15 Calm 10.00 Fair CLR 58.1 54.7 88% 29.83 0.0
10 01:55 S 3 10.00 Fair CLR 58.6 54.9 68.9 58.3 87% 29.83 0.0
10 01:35 S 5 10.00 Fair CLR 58.6 54.7 87% 29.84 0.0
10 01:15 S 5 10.00 Fair CLR 59 54.9 86% 29.83 0.0
10 00:55 Calm 10.00 Fair CLR 58.6 54.1 85% 29.84 0.0
10 00:35 Calm 9.00 Fair CLR 59.2 54.1 84% 29.84 0.0
10 00:15 Calm 10.00 A Few Clouds FEW080 60.6 54.1 79% 29.83 0.0
09 23:55 SE 3 10.00 A Few Clouds FEW080 60.3 53.6 79% 29.84 0.0
09 23:15 Calm 10.00 A Few Clouds FEW090 61.7 53.2 74% 29.83 0.0
09 22:55 Calm 10.00 Partly Cloudy SCT090 61.2 53.4 76% 29.82 0.0
09 22:35 SE 6 10.00 Fair CLR 62.4 53.6 73% 29.82 0.0
09 22:15 SE 5 10.00 Fair CLR 63 54 73% 29.82 0.0
09 21:45 SE 3 10.00 Fair CLR 62.6 53.6 73% 29.82 0.0
09 20:45 S 7 10.00 Fair CLR 66.2 53.6 64% 29.81 0.0
09 19:45 S 9 10.00 Fair CLR 69.8 53.6 57% 29.79 0.0
09 18:45 SW 7 10.00 Fair CLR 73.4 51.8 47% 29.79 0.0
09 17:45 SW 12 10.00 Fair CLR 73.4 51.8 47% 29.79 0.0
09 16:55 S 12 G 18 10.00 Fair CLR 73.4 51.8 47% 29.78 0.0
09 15:45 S 12 10.00 Partly Cloudy FEW120 SCT150 71.6 51.8 50% 29.8 0.0
09 14:45 SW 14 10.00 A Few Clouds FEW150 73.4 50 44% 29.82 0.0
09 13:50 SW 15 G 25 10.00 Fair CLR 73.4 48.2 41% 29.84 0.0
09 12:50 SW 20 G 33 10.00 Fair CLR 73.4 46.4 38% 29.84 0.0
09 11:50 SW 22 G 33 10.00 Fair and Breezy CLR 71.6 44.6 38% 29.85 0.0
09 10:50 SW 18 G 31 10.00 Fair CLR 69.8 46.4 43% 29.89 0.0
09 09:50 SW 13 G 28 10.00 Fair CLR 68 46.4 46% 29.89 0.0
09 08:45 S 14 G 24 10.00 A Few Clouds FEW140 64.4 48.2 56% 29.89 0.0
09 07:45 S 15 10.00 Partly Cloudy SCT150 60.8 48.2 63% 29.9 0.0
09 06:50 S 14 G 20 10.00 Mostly Cloudy BKN140 59 50 72% 29.9 0.0
09 05:55 S 13 10.00 Mostly Cloudy BKN150 59 51.8 77% 29.89 0.0
09 05:35 S 10 10.00 Overcast OVC150 58.5 51.4 78% 29.89 0.0
09 05:15 S 10 10.00 Overcast FEW130 OVC150 58.8 51.3 76% 29.89 0.0
09 04:55 S 13 10.00 Overcast OVC140 59.2 50.9 74% 29.89 0.0
09 04:35 S 12 10.00 Mostly Cloudy BKN140 59.2 50.9 74% 29.89 0.0
09 03:55 S 13 10.00 Mostly Cloudy BKN130 59.4 51.3 75% 29.9 0.0
09 03:35 S 12 10.00 Mostly Cloudy BKN130 59.5 51.3 74% 29.9 0.0
09 03:15 S 10 10.00 Overcast OVC130 59.2 50.7 74% 29.9 0.0
09 02:55 S 12 10.00 Mostly Cloudy BKN130 BKN150 59.2 50 72% 29.91 0.0
09 02:35 S 12 10.00 Overcast OVC140 58.3 50.4 75% 29.91 0.0
09 02:15 S 9 10.00 Partly Cloudy SCT140 57.7 50.2 76% 29.91 0.0
09 01:55 S 9 10.00 Fair CLR 57.2 49.8 62.1 57 77% 29.92 0.0
09 01:35 S 10 10.00 Fair CLR 57.2 49.6 76% 29.92 0.0
09 01:15 S 10 10.00 Fair CLR 57.4 49.1 74% 29.92 0.0
09 00:55 S 12 10.00 Fair CLR 57.7 48.9 73% 29.92 0.0
09 00:35 S 14 10.00 Fair CLR 57.6 48.7 73% 29.92 0.0
09 00:15 S 12 10.00 Fair CLR 57.7 48.6 72% 29.92 0.0
08 23:55 S 12 10.00 Fair CLR 58.1 48.2 70% 29.93 0.0
08 23:35 S 13 10.00 Fair CLR 57.9 47.8 69% 29.93 0.0
08 23:15 S 10 10.00 Fair CLR 57.7 47.3 68% 29.94 0.0
08 22:55 S 10 10.00 Fair CLR 58.1 46.4 65% 29.93 0.0
08 22:35 S 10 10.00 Fair CLR 58.3 45.7 63% 29.93 0.0
08 22:15 S 12 10.00 Fair CLR 59.2 45 59% 29.93 0.0
08 21:45 S 14 10.00 Fair CLR 60.8 44.6 55% 29.93 0.0
08 20:45 S 14 10.00 Fair CLR 60.8 42.8 52% 29.91 0.0
08 19:45 S 14 10.00 Partly Cloudy SCT110 62.6 39.2 42% 29.9 0.0
08 18:45 S 15 10.00 Fair CLR 66.2 39.2 37% 29.89 0.0
08 17:45 SW 14 G 20 10.00 Fair CLR 68 39.2 35% 29.89 0.0
08 16:45 S 15 10.00 Fair CLR 69.8 37.4 31% 29.9 0.0
08 15:45 SW 15 G 22 10.00 Fair CLR 69.8 35.6 29% 29.91 0.0
08 14:45 S 20 10.00 Fair CLR 68 35.6 30% 29.93 0.0
08 13:45 SW 10 10.00 Fair CLR 68 33.8 28% 29.95 0.0
08 12:45 W 10 10.00 Fair CLR 66.2 32 28% 29.97 0.0
08 11:45 W 9 10.00 Fair CLR 64.4 28.4 26% 29.98 0.0
08 10:45 W 9 10.00 Fair CLR 62.6 30.2 30% 29.99 0.0
08 09:45 W 5 10.00 Fair CLR 59 32 36% 30 0.0
08 08:50 NW 3 10.00 Fair CLR 57.2 35.6 44% 30.01 0.0
08 07:45 Calm 10.00 Fair CLR 55.4 35.6 47% 29.99 0.0
08 06:45 Calm 10.00 Fair CLR 46.4 37.4 71% 29.97 0.0
08 05:55 N 6 10.00 Fair CLR 50.9 34.9 54% 29.95 0.0
08 05:45 N 5 10.00 Fair CLR 50 35.6 58% 49 29.95 0.0
08 05:35 NW 6 10.00 Fair CLR 50.9 35.2 55% 29.95 0.0
08 05:15 N 6 10.00 Fair CLR 51.6 36.5 56% 29.94 0.0
08 04:55 N 5 10.00 Fair CLR 52.3 37.8 58% 29.93 0.0
08 04:35 NW 8 10.00 Fair CLR 52.7 39 60% 29.92 0.0
08 04:15 N 5 10.00 Fair CLR 51.3 43.3 74% 29.92 0.0
08 03:35 NW 8 10.00 Fair CLR 51.3 47.5 87% 29.9 0.0
08 03:15 Vrbl 3 10.00 Fair CLR 52 48.2 87% 29.89 0.0
08 02:55 W 6 10.00 Fair CLR 52.2 48.9 89% 29.87 0.0
08 02:35 W 7 10.00 Fair CLR 52.5 48.9 88% 29.87 0.0
08 02:15 W 6 10.00 Fair CLR 52.5 48.6 86% 29.87 0.0
08 01:55 SW 3 10.00 Fair CLR 51.8 48.2 53.4 49.3 88% 29.87 0.0
08 01:35 SW 3 10.00 A Few Clouds FEW090 51.8 48.2 88% 29.87 0.0
08 01:15 W 7 10.00 Partly Cloudy SCT090 53.2 48.4 84% 29.88 0.0
08 00:55 W 5 10.00 Partly Cloudy SCT090 50.7 47.3 88% 29.87 0.0
08 00:35 W 3 10.00 A Few Clouds FEW055 50.5 46.6 86% 29.87 0.0
08 00:15 S 5 10.00 A Few Clouds FEW060 49.3 45.1 86% 48 29.87 0.0
07 23:55 SW 3 10.00 Fair CLR 50.5 44.6 80% 29.86 0.0
07 23:35 Calm 10.00 Fair CLR 50.5 44.6 80% 29.86 0.0
07 22:55 W 5 10.00 Fair CLR 49.8 44.1 81% 49 29.86 0.0
07 22:35 W 5 10.00 Fair CLR 50.2 43.9 79% 29.86 0.0
07 22:15 W 6 10.00 Fair CLR 50.2 43.7 79% 29.86 0.0
07 21:45 Calm 10.00 Fair CLR 50 42.8 76% 29.86 0.0
07 20:45 W 3 10.00 Fair CLR 51.8 42.8 72% 29.84 0.0
07 19:50 SW 8 10.00 Fair CLR 53.6 41 63% 29.82 0.0
07 18:50 SW 9 10.00 Fair CLR 57.2 41 55% 29.8 0.0
07 17:45 W 8 10.00 A Few Clouds FEW120 59 41 51% 29.81 0.0
Date Time (edt) Wind (mph) Vis. (mi.) Weather Sky Cond. Air Dwpt Max. Min. Relative Humidity Wind Chill (°F) Heat Index (°F) altimeter (in) sea level (mb) 1 hr 3 hr 6 hr
6 hour
Temperature (ºF) Pressure Precipitation (in)